sensor_id;sensor_type;location;lat;lon;timestamp;temperature;humidity
29341;DHT22;16337;59.536;13.468;2022-07-19T00:01:29;13.30;99.90
29341;DHT22;16337;59.536;13.468;2022-07-19T00:03:56;13.30;99.90
29341;DHT22;16337;59.536;13.468;2022-07-19T00:06:22;13.30;99.90
29341;DHT22;16337;59.536;13.468;2022-07-19T00:08:48;13.20;99.90
29341;DHT22;16337;59.536;13.468;2022-07-19T00:11:14;13.20;99.90
29341;DHT22;16337;59.536;13.468;2022-07-19T00:13:39;13.20;99.90
29341;DHT22;16337;59.536;13.468;2022-07-19T00:16:05;13.10;99.90
29341;DHT22;16337;59.536;13.468;2022-07-19T00:18:31;13.10;99.90
29341;DHT22;16337;59.536;13.468;2022-07-19T00:20:56;13.00;99.90
29341;DHT22;16337;59.536;13.468;2022-07-19T00:23:22;13.00;99.90
29341;DHT22;16337;59.536;13.468;2022-07-19T00:25:48;13.00;99.90
29341;DHT22;16337;59.536;13.468;2022-07-19T00:28:13;13.00;99.90
29341;DHT22;16337;59.536;13.468;2022-07-19T00:30:40;12.90;99.90
29341;DHT22;16337;59.536;13.468;2022-07-19T00:33:06;12.90;99.90
29341;DHT22;16337;59.536;13.468;2022-07-19T00:35:37;12.80;99.90
29341;DHT22;16337;59.536;13.468;2022-07-19T00:38:05;12.70;99.90
29341;DHT22;16337;59.536;13.468;2022-07-19T00:40:32;12.70;99.90
29341;DHT22;16337;59.536;13.468;2022-07-19T00:42:58;12.70;99.90
29341;DHT22;16337;59.536;13.468;2022-07-19T00:45:23;12.60;99.90
29341;DHT22;16337;59.536;13.468;2022-07-19T00:47:50;12.60;99.90
29341;DHT22;16337;59.536;13.468;2022-07-19T00:50:18;12.70;99.90
29341;DHT22;16337;59.536;13.468;2022-07-19T00:52:49;12.60;99.90
29341;DHT22;16337;59.536;13.468;2022-07-19T00:55:15;12.60;99.90
29341;DHT22;16337;59.536;13.468;2022-07-19T00:57:43;12.70;99.90
29341;DHT22;16337;59.536;13.468;2022-07-19T01:00:09;12.70;99.90
29341;DHT22;16337;59.536;13.468;2022-07-19T01:02:36;12.80;99.90
29341;DHT22;16337;59.536;13.468;2022-07-19T01:05:03;12.80;99.90
29341;DHT22;16337;59.536;13.468;2022-07-19T01:07:29;12.80;99.90
29341;DHT22;16337;59.536;13.468;2022-07-19T01:09:54;12.70;99.90
29341;DHT22;16337;59.536;13.468;2022-07-19T01:12:20;12.70;99.90
29341;DHT22;16337;59.536;13.468;2022-07-19T01:14:49;12.60;99.90
29341;DHT22;16337;59.536;13.468;2022-07-19T01:17:14;12.50;99.90
29341;DHT22;16337;59.536;13.468;2022-07-19T01:19:42;12.40;99.90
29341;DHT22;16337;59.536;13.468;2022-07-19T01:22:08;12.40;99.90
29341;DHT22;16337;59.536;13.468;2022-07-19T01:24:34;12.30;99.90
29341;DHT22;16337;59.536;13.468;2022-07-19T01:27:00;12.30;99.90
29341;DHT22;16337;59.536;13.468;2022-07-19T01:29:26;12.30;99.90
29341;DHT22;16337;59.536;13.468;2022-07-19T01:31:51;12.20;99.90
29341;DHT22;16337;59.536;13.468;2022-07-19T01:34:17;12.20;99.90
29341;DHT22;16337;59.536;13.468;2022-07-19T01:36:43;12.10;99.90
29341;DHT22;16337;59.536;13.468;2022-07-19T01:39:08;12.10;99.90
29341;DHT22;16337;59.536;13.468;2022-07-19T01:41:35;12.00;99.90
29341;DHT22;16337;59.536;13.468;2022-07-19T01:44:00;12.00;99.90
29341;DHT22;16337;59.536;13.468;2022-07-19T01:46:26;11.90;99.90
29341;DHT22;16337;59.536;13.468;2022-07-19T01:48:52;11.90;99.90
29341;DHT22;16337;59.536;13.468;2022-07-19T01:51:17;11.90;99.90
29341;DHT22;16337;59.536;13.468;2022-07-19T01:53:43;11.90;99.90
29341;DHT22;16337;59.536;13.468;2022-07-19T01:56:09;11.90;99.90
29341;DHT22;16337;59.536;13.468;2022-07-19T01:58:34;11.90;99.90
29341;DHT22;16337;59.536;13.468;2022-07-19T02:01:00;11.90;99.90
29341;DHT22;16337;59.536;13.468;2022-07-19T02:03:26;11.90;99.90
29341;DHT22;16337;59.536;13.468;2022-07-19T02:05:51;11.80;99.90
29341;DHT22;16337;59.536;13.468;2022-07-19T02:08:17;11.90;99.90
29341;DHT22;16337;59.536;13.468;2022-07-19T02:10:43;11.90;99.90
29341;DHT22;16337;59.536;13.468;2022-07-19T02:13:09;12.00;99.90
29341;DHT22;16337;59.536;13.468;2022-07-19T02:15:34;12.00;99.90
29341;DHT22;16337;59.536;13.468;2022-07-19T02:18:00;12.10;99.90
29341;DHT22;16337;59.536;13.468;2022-07-19T02:20:27;12.10;99.90
29341;DHT22;16337;59.536;13.468;2022-07-19T02:22:52;12.20;99.90
29341;DHT22;16337;59.536;13.468;2022-07-19T02:25:18;12.20;99.90
29341;DHT22;16337;59.536;13.468;2022-07-19T02:27:44;12.10;99.90
29341;DHT22;16337;59.536;13.468;2022-07-19T02:30:11;12.10;99.90
29341;DHT22;16337;59.536;13.468;2022-07-19T02:32:37;12.10;99.90
29341;DHT22;16337;59.536;13.468;2022-07-19T02:35:05;12.10;99.90
29341;DHT22;16337;59.536;13.468;2022-07-19T02:37:31;12.10;99.90
29341;DHT22;16337;59.536;13.468;2022-07-19T02:39:56;12.10;99.90
29341;DHT22;16337;59.536;13.468;2022-07-19T02:42:22;12.20;99.90
29341;DHT22;16337;59.536;13.468;2022-07-19T02:44:48;12.20;99.90
29341;DHT22;16337;59.536;13.468;2022-07-19T02:47:13;12.30;99.90
29341;DHT22;16337;59.536;13.468;2022-07-19T02:49:39;12.30;99.90
29341;DHT22;16337;59.536;13.468;2022-07-19T02:52:05;12.40;99.90
29341;DHT22;16337;59.536;13.468;2022-07-19T02:54:30;12.50;99.90
29341;DHT22;16337;59.536;13.468;2022-07-19T02:56:56;12.50;99.90
29341;DHT22;16337;59.536;13.468;2022-07-19T02:59:22;12.50;99.90
29341;DHT22;16337;59.536;13.468;2022-07-19T03:01:47;12.50;99.90
29341;DHT22;16337;59.536;13.468;2022-07-19T03:04:13;12.50;99.90
29341;DHT22;16337;59.536;13.468;2022-07-19T03:06:38;12.50;99.90
29341;DHT22;16337;59.536;13.468;2022-07-19T03:09:04;12.40;99.90
29341;DHT22;16337;59.536;13.468;2022-07-19T03:11:30;12.40;99.90
29341;DHT22;16337;59.536;13.468;2022-07-19T03:13:55;12.50;99.90
29341;DHT22;16337;59.536;13.468;2022-07-19T03:16:21;12.50;99.90
29341;DHT22;16337;59.536;13.468;2022-07-19T03:18:47;12.60;99.90
29341;DHT22;16337;59.536;13.468;2022-07-19T03:21:12;12.60;99.90
29341;DHT22;16337;59.536;13.468;2022-07-19T03:23:38;12.60;99.90
29341;DHT22;16337;59.536;13.468;2022-07-19T03:26:05;12.60;99.90
29341;DHT22;16337;59.536;13.468;2022-07-19T03:28:31;12.60;99.90
29341;DHT22;16337;59.536;13.468;2022-07-19T03:30:57;12.60;99.90
29341;DHT22;16337;59.536;13.468;2022-07-19T03:33:23;12.70;99.90
29341;DHT22;16337;59.536;13.468;2022-07-19T03:35:48;12.70;99.90
29341;DHT22;16337;59.536;13.468;2022-07-19T03:38:14;12.80;99.90
29341;DHT22;16337;59.536;13.468;2022-07-19T03:40:44;12.90;99.90
29341;DHT22;16337;59.536;13.468;2022-07-19T03:43:13;12.90;99.90
29341;DHT22;16337;59.536;13.468;2022-07-19T03:45:39;13.00;99.90
29341;DHT22;16337;59.536;13.468;2022-07-19T03:48:05;13.10;99.90
29341;DHT22;16337;59.536;13.468;2022-07-19T03:50:31;13.10;99.90
29341;DHT22;16337;59.536;13.468;2022-07-19T03:52:57;13.10;99.90
29341;DHT22;16337;59.536;13.468;2022-07-19T03:55:22;13.20;99.90
29341;DHT22;16337;59.536;13.468;2022-07-19T03:57:48;13.20;99.90
29341;DHT22;16337;59.536;13.468;2022-07-19T04:00:14;13.30;99.90
29341;DHT22;16337;59.536;13.468;2022-07-19T04:02:40;13.30;99.90
29341;DHT22;16337;59.536;13.468;2022-07-19T04:05:06;13.30;99.90
29341;DHT22;16337;59.536;13.468;2022-07-19T04:07:32;13.40;99.90
29341;DHT22;16337;59.536;13.468;2022-07-19T04:09:58;13.40;99.90
29341;DHT22;16337;59.536;13.468;2022-07-19T04:12:24;13.50;99.90
29341;DHT22;16337;59.536;13.468;2022-07-19T04:14:49;13.70;99.90
29341;DHT22;16337;59.536;13.468;2022-07-19T04:17:15;13.80;99.90
29341;DHT22;16337;59.536;13.468;2022-07-19T04:19:41;13.90;99.90
29341;DHT22;16337;59.536;13.468;2022-07-19T04:22:07;14.00;99.90
29341;DHT22;16337;59.536;13.468;2022-07-19T04:24:32;14.20;99.90
29341;DHT22;16337;59.536;13.468;2022-07-19T04:26:58;14.30;99.90
29341;DHT22;16337;59.536;13.468;2022-07-19T04:29:24;14.50;99.90
29341;DHT22;16337;59.536;13.468;2022-07-19T04:31:49;14.70;99.90
29341;DHT22;16337;59.536;13.468;2022-07-19T04:34:15;14.80;99.90
29341;DHT22;16337;59.536;13.468;2022-07-19T04:36:41;15.00;99.90
29341;DHT22;16337;59.536;13.468;2022-07-19T04:39:06;15.10;99.90
29341;DHT22;16337;59.536;13.468;2022-07-19T04:41:32;15.30;99.90
29341;DHT22;16337;59.536;13.468;2022-07-19T04:43:58;15.50;99.90
29341;DHT22;16337;59.536;13.468;2022-07-19T04:46:23;15.70;99.90
29341;DHT22;16337;59.536;13.468;2022-07-19T04:48:49;15.80;99.90
29341;DHT22;16337;59.536;13.468;2022-07-19T04:51:15;15.90;99.90
29341;DHT22;16337;59.536;13.468;2022-07-19T04:53:40;16.10;99.90
29341;DHT22;16337;59.536;13.468;2022-07-19T04:56:06;16.20;99.90
29341;DHT22;16337;59.536;13.468;2022-07-19T04:58:32;16.30;99.90
29341;DHT22;16337;59.536;13.468;2022-07-19T05:00:58;16.40;99.90
29341;DHT22;16337;59.536;13.468;2022-07-19T05:03:23;16.50;99.90
29341;DHT22;16337;59.536;13.468;2022-07-19T05:05:49;16.60;99.90
29341;DHT22;16337;59.536;13.468;2022-07-19T05:08:15;16.70;99.90
29341;DHT22;16337;59.536;13.468;2022-07-19T05:10:40;16.70;99.90
29341;DHT22;16337;59.536;13.468;2022-07-19T05:13:06;16.80;99.90
29341;DHT22;16337;59.536;13.468;2022-07-19T05:15:32;16.90;99.90
29341;DHT22;16337;59.536;13.468;2022-07-19T05:17:57;17.10;99.90
29341;DHT22;16337;59.536;13.468;2022-07-19T05:20:23;17.20;99.90
29341;DHT22;16337;59.536;13.468;2022-07-19T05:22:49;17.20;99.90
29341;DHT22;16337;59.536;13.468;2022-07-19T05:25:15;17.30;99.90
29341;DHT22;16337;59.536;13.468;2022-07-19T05:27:41;17.40;99.90
29341;DHT22;16337;59.536;13.468;2022-07-19T05:30:08;17.60;99.90
29341;DHT22;16337;59.536;13.468;2022-07-19T05:32:34;17.60;99.90
29341;DHT22;16337;59.536;13.468;2022-07-19T05:35:00;17.70;99.90
29341;DHT22;16337;59.536;13.468;2022-07-19T05:37:26;17.90;99.90
29341;DHT22;16337;59.536;13.468;2022-07-19T05:39:52;17.90;99.90
29341;DHT22;16337;59.536;13.468;2022-07-19T05:42:17;18.00;99.90
29341;DHT22;16337;59.536;13.468;2022-07-19T05:44:43;18.10;99.90
29341;DHT22;16337;59.536;13.468;2022-07-19T05:47:08;18.10;99.90
29341;DHT22;16337;59.536;13.468;2022-07-19T05:49:34;18.20;99.90
29341;DHT22;16337;59.536;13.468;2022-07-19T05:52:00;18.40;99.90
29341;DHT22;16337;59.536;13.468;2022-07-19T05:54:26;18.40;99.90
29341;DHT22;16337;59.536;13.468;2022-07-19T05:56:51;18.40;99.90
29341;DHT22;16337;59.536;13.468;2022-07-19T05:59:18;18.60;99.90
29341;DHT22;16337;59.536;13.468;2022-07-19T06:01:47;18.70;99.90
29341;DHT22;16337;59.536;13.468;2022-07-19T06:04:12;18.80;99.90
29341;DHT22;16337;59.536;13.468;2022-07-19T06:06:38;18.90;99.90
29341;DHT22;16337;59.536;13.468;2022-07-19T06:09:04;19.10;99.90
29341;DHT22;16337;59.536;13.468;2022-07-19T06:11:40;19.50;99.90
29341;DHT22;16337;59.536;13.468;2022-07-19T06:14:07;19.90;99.90
29341;DHT22;16337;59.536;13.468;2022-07-19T06:16:35;20.20;99.90
29341;DHT22;16337;59.536;13.468;2022-07-19T06:19:01;20.40;99.90
29341;DHT22;16337;59.536;13.468;2022-07-19T06:21:28;20.40;99.90
29341;DHT22;16337;59.536;13.468;2022-07-19T06:23:54;20.30;99.90
29341;DHT22;16337;59.536;13.468;2022-07-19T06:26:19;20.30;99.90
29341;DHT22;16337;59.536;13.468;2022-07-19T06:28:45;20.20;99.90
29341;DHT22;16337;59.536;13.468;2022-07-19T06:31:12;20.10;99.90
29341;DHT22;16337;59.536;13.468;2022-07-19T06:33:39;19.80;99.90
29341;DHT22;16337;59.536;13.468;2022-07-19T06:36:05;19.70;99.90
29341;DHT22;16337;59.536;13.468;2022-07-19T06:38:31;19.70;99.90
29341;DHT22;16337;59.536;13.468;2022-07-19T06:40:57;19.90;99.90
29341;DHT22;16337;59.536;13.468;2022-07-19T06:43:22;20.00;99.90
29341;DHT22;16337;59.536;13.468;2022-07-19T06:45:48;20.20;99.90
29341;DHT22;16337;59.536;13.468;2022-07-19T06:48:14;20.40;99.90
29341;DHT22;16337;59.536;13.468;2022-07-19T06:50:39;20.40;99.90
29341;DHT22;16337;59.536;13.468;2022-07-19T06:53:05;20.80;99.90
29341;DHT22;16337;59.536;13.468;2022-07-19T06:55:31;20.90;99.90
29341;DHT22;16337;59.536;13.468;2022-07-19T06:57:56;20.70;99.90
29341;DHT22;16337;59.536;13.468;2022-07-19T07:00:22;20.80;99.90
29341;DHT22;16337;59.536;13.468;2022-07-19T07:02:48;20.80;99.90
29341;DHT22;16337;59.536;13.468;2022-07-19T07:05:14;20.80;99.90
29341;DHT22;16337;59.536;13.468;2022-07-19T07:07:40;20.80;99.90
29341;DHT22;16337;59.536;13.468;2022-07-19T07:10:08;20.80;99.90
29341;DHT22;16337;59.536;13.468;2022-07-19T07:12:34;20.90;99.90
29341;DHT22;16337;59.536;13.468;2022-07-19T07:15:00;21.10;99.90
29341;DHT22;16337;59.536;13.468;2022-07-19T07:17:26;21.30;99.90
29341;DHT22;16337;59.536;13.468;2022-07-19T07:19:52;21.50;99.90
29341;DHT22;16337;59.536;13.468;2022-07-19T07:22:17;21.80;99.90
29341;DHT22;16337;59.536;13.468;2022-07-19T07:24:43;22.00;99.90
29341;DHT22;16337;59.536;13.468;2022-07-19T07:27:09;22.10;99.90
29341;DHT22;16337;59.536;13.468;2022-07-19T07:29:35;22.10;99.90
29341;DHT22;16337;59.536;13.468;2022-07-19T07:32:01;22.10;99.90
29341;DHT22;16337;59.536;13.468;2022-07-19T07:34:27;22.20;99.90
29341;DHT22;16337;59.536;13.468;2022-07-19T07:36:52;22.30;99.90
29341;DHT22;16337;59.536;13.468;2022-07-19T07:39:18;22.60;99.90
29341;DHT22;16337;59.536;13.468;2022-07-19T07:41:44;22.70;99.90
29341;DHT22;16337;59.536;13.468;2022-07-19T07:44:09;22.90;99.90
29341;DHT22;16337;59.536;13.468;2022-07-19T07:46:35;23.20;99.90
29341;DHT22;16337;59.536;13.468;2022-07-19T07:49:01;23.40;99.90
29341;DHT22;16337;59.536;13.468;2022-07-19T07:51:27;23.40;99.90
29341;DHT22;16337;59.536;13.468;2022-07-19T07:53:52;23.60;99.90
29341;DHT22;16337;59.536;13.468;2022-07-19T07:56:18;23.50;99.90
29341;DHT22;16337;59.536;13.468;2022-07-19T07:58:44;23.30;99.90
29341;DHT22;16337;59.536;13.468;2022-07-19T08:01:10;23.40;99.90
29341;DHT22;16337;59.536;13.468;2022-07-19T08:03:35;23.40;99.90
29341;DHT22;16337;59.536;13.468;2022-07-19T08:06:01;23.20;99.90
29341;DHT22;16337;59.536;13.468;2022-07-19T08:08:27;23.00;99.90
29341;DHT22;16337;59.536;13.468;2022-07-19T08:10:53;23.00;99.90
29341;DHT22;16337;59.536;13.468;2022-07-19T08:13:20;23.00;99.90
29341;DHT22;16337;59.536;13.468;2022-07-19T08:15:46;23.30;99.90
29341;DHT22;16337;59.536;13.468;2022-07-19T08:18:11;23.70;99.90
29341;DHT22;16337;59.536;13.468;2022-07-19T08:20:37;24.20;99.90
29341;DHT22;16337;59.536;13.468;2022-07-19T08:23:03;24.70;99.90
29341;DHT22;16337;59.536;13.468;2022-07-19T08:25:28;25.10;99.90
29341;DHT22;16337;59.536;13.468;2022-07-19T08:27:54;25.20;99.90
29341;DHT22;16337;59.536;13.468;2022-07-19T08:30:20;24.90;99.90
29341;DHT22;16337;59.536;13.468;2022-07-19T08:32:46;25.10;99.90
29341;DHT22;16337;59.536;13.468;2022-07-19T08:35:12;25.30;99.90
29341;DHT22;16337;59.536;13.468;2022-07-19T08:37:38;25.10;99.90
29341;DHT22;16337;59.536;13.468;2022-07-19T08:40:05;24.80;99.90
29341;DHT22;16337;59.536;13.468;2022-07-19T08:42:31;24.80;99.90
29341;DHT22;16337;59.536;13.468;2022-07-19T08:45:00;25.10;99.90
29341;DHT22;16337;59.536;13.468;2022-07-19T08:47:27;25.20;99.90
29341;DHT22;16337;59.536;13.468;2022-07-19T08:49:53;25.20;99.90
29341;DHT22;16337;59.536;13.468;2022-07-19T08:52:19;25.10;99.90
29341;DHT22;16337;59.536;13.468;2022-07-19T08:54:45;25.20;99.90
29341;DHT22;16337;59.536;13.468;2022-07-19T08:57:11;25.30;99.90
29341;DHT22;16337;59.536;13.468;2022-07-19T09:00:04;25.60;99.90
29341;DHT22;16337;59.536;13.468;2022-07-19T09:02:30;25.60;99.90
29341;DHT22;16337;59.536;13.468;2022-07-19T09:07:31;25.70;99.90
29341;DHT22;16337;59.536;13.468;2022-07-19T09:10:17;25.90;99.90
29341;DHT22;16337;59.536;13.468;2022-07-19T09:13:02;26.30;99.90
29341;DHT22;16337;59.536;13.468;2022-07-19T09:15:49;26.40;99.90
29341;DHT22;16337;59.536;13.468;2022-07-19T09:20:45;26.40;99.90
29341;DHT22;16337;59.536;13.468;2022-07-19T09:23:12;26.90;99.90
29341;DHT22;16337;59.536;13.468;2022-07-19T09:25:57;26.90;99.90
29341;DHT22;16337;59.536;13.468;2022-07-19T09:28:26;27.20;99.90
29341;DHT22;16337;59.536;13.468;2022-07-19T09:30:53;27.00;99.90
29341;DHT22;16337;59.536;13.468;2022-07-19T09:35:49;26.80;99.90
29341;DHT22;16337;59.536;13.468;2022-07-19T09:38:23;27.10;99.90
29341;DHT22;16337;59.536;13.468;2022-07-19T09:40:51;27.30;99.90
29341;DHT22;16337;59.536;13.468;2022-07-19T09:43:17;27.40;99.90
29341;DHT22;16337;59.536;13.468;2022-07-19T09:45:45;27.50;99.90
29341;DHT22;16337;59.536;13.468;2022-07-19T09:48:11;27.50;99.90
29341;DHT22;16337;59.536;13.468;2022-07-19T09:50:37;27.60;99.90
29341;DHT22;16337;59.536;13.468;2022-07-19T09:53:04;27.80;98.30
29341;DHT22;16337;59.536;13.468;2022-07-19T09:55:31;27.60;98.80
29341;DHT22;16337;59.536;13.468;2022-07-19T09:57:57;27.60;98.10
29341;DHT22;16337;59.536;13.468;2022-07-19T10:00:25;27.60;99.00
29341;DHT22;16337;59.536;13.468;2022-07-19T10:02:56;27.80;99.20
29341;DHT22;16337;59.536;13.468;2022-07-19T10:05:23;28.30;98.30
29341;DHT22;16337;59.536;13.468;2022-07-19T10:07:49;28.20;97.70
29341;DHT22;16337;59.536;13.468;2022-07-19T10:10:17;28.50;97.60
29341;DHT22;16337;59.536;13.468;2022-07-19T10:12:44;28.20;98.00
29341;DHT22;16337;59.536;13.468;2022-07-19T10:15:12;28.40;97.90
29341;DHT22;16337;59.536;13.468;2022-07-19T10:17:54;28.50;97.70
29341;DHT22;16337;59.536;13.468;2022-07-19T10:20:24;28.60;96.90
29341;DHT22;16337;59.536;13.468;2022-07-19T10:22:50;28.90;97.60
29341;DHT22;16337;59.536;13.468;2022-07-19T10:25:17;29.40;97.50
29341;DHT22;16337;59.536;13.468;2022-07-19T10:27:50;29.50;95.80
29341;DHT22;16337;59.536;13.468;2022-07-19T10:30:18;29.50;94.70
29341;DHT22;16337;59.536;13.468;2022-07-19T10:32:47;29.30;96.50
29341;DHT22;16337;59.536;13.468;2022-07-19T10:40:25;29.10;94.50
29341;DHT22;16337;59.536;13.468;2022-07-19T10:43:10;29.30;94.40
29341;DHT22;16337;59.536;13.468;2022-07-19T10:45:38;29.50;93.60
29341;DHT22;16337;59.536;13.468;2022-07-19T10:48:09;29.60;94.00
29341;DHT22;16337;59.536;13.468;2022-07-19T10:51:02;29.70;92.70
29341;DHT22;16337;59.536;13.468;2022-07-19T10:54:09;30.00;93.60
29341;DHT22;16337;59.536;13.468;2022-07-19T10:56:55;30.50;94.10
29341;DHT22;16337;59.536;13.468;2022-07-19T10:59:40;30.70;92.00
29341;DHT22;16337;59.536;13.468;2022-07-19T11:02:06;30.40;91.30
29341;DHT22;16337;59.536;13.468;2022-07-19T11:04:34;30.00;91.60
29341;DHT22;16337;59.536;13.468;2022-07-19T11:07:13;29.60;92.10
29341;DHT22;16337;59.536;13.468;2022-07-19T11:09:44;29.60;92.30
29341;DHT22;16337;59.536;13.468;2022-07-19T11:12:34;29.70;89.70
29341;DHT22;16337;59.536;13.468;2022-07-19T11:15:08;29.70;91.30
29341;DHT22;16337;59.536;13.468;2022-07-19T11:17:34;30.10;90.90
29341;DHT22;16337;59.536;13.468;2022-07-19T11:20:03;30.10;91.80
29341;DHT22;16337;59.536;13.468;2022-07-19T11:22:40;30.20;88.30
29341;DHT22;16337;59.536;13.468;2022-07-19T11:25:07;30.40;88.90
29341;DHT22;16337;59.536;13.468;2022-07-19T11:27:33;30.20;87.90
29341;DHT22;16337;59.536;13.468;2022-07-19T11:30:01;29.80;89.90
29341;DHT22;16337;59.536;13.468;2022-07-19T11:32:27;29.90;86.70
29341;DHT22;16337;59.536;13.468;2022-07-19T11:35:02;30.10;90.70
29341;DHT22;16337;59.536;13.468;2022-07-19T11:37:30;30.20;85.60
29341;DHT22;16337;59.536;13.468;2022-07-19T11:39:57;30.50;87.00
29341;DHT22;16337;59.536;13.468;2022-07-19T11:44:57;31.40;80.20
29341;DHT22;16337;59.536;13.468;2022-07-19T11:47:23;30.80;80.80
29341;DHT22;16337;59.536;13.468;2022-07-19T11:49:49;30.60;82.10
29341;DHT22;16337;59.536;13.468;2022-07-19T11:52:15;30.40;77.10
29341;DHT22;16337;59.536;13.468;2022-07-19T11:54:41;30.20;80.30
29341;DHT22;16337;59.536;13.468;2022-07-19T11:57:23;30.30;82.10
29341;DHT22;16337;59.536;13.468;2022-07-19T11:59:49;30.60;80.80
29341;DHT22;16337;59.536;13.468;2022-07-19T12:02:15;30.70;81.40
29341;DHT22;16337;59.536;13.468;2022-07-19T12:04:40;30.60;83.10
29341;DHT22;16337;59.536;13.468;2022-07-19T12:07:06;30.50;81.90
29341;DHT22;16337;59.536;13.468;2022-07-19T12:09:32;30.60;80.60
29341;DHT22;16337;59.536;13.468;2022-07-19T12:11:59;30.70;83.30
29341;DHT22;16337;59.536;13.468;2022-07-19T12:14:34;30.90;80.10
29341;DHT22;16337;59.536;13.468;2022-07-19T12:17:20;31.00;82.60
29341;DHT22;16337;59.536;13.468;2022-07-19T12:19:51;31.00;78.20
29341;DHT22;16337;59.536;13.468;2022-07-19T12:22:37;30.90;79.50
29341;DHT22;16337;59.536;13.468;2022-07-19T12:25:05;30.90;79.50
29341;DHT22;16337;59.536;13.468;2022-07-19T12:27:32;30.70;80.20
29341;DHT22;16337;59.536;13.468;2022-07-19T12:29:58;30.20;79.50
29341;DHT22;16337;59.536;13.468;2022-07-19T12:32:36;30.00;78.40
29341;DHT22;16337;59.536;13.468;2022-07-19T12:35:10;30.50;80.00
29341;DHT22;16337;59.536;13.468;2022-07-19T12:37:40;30.80;78.00
29341;DHT22;16337;59.536;13.468;2022-07-19T12:42:38;31.20;78.20
29341;DHT22;16337;59.536;13.468;2022-07-19T12:45:05;31.60;79.20
29341;DHT22;16337;59.536;13.468;2022-07-19T12:47:31;31.70;72.40
29341;DHT22;16337;59.536;13.468;2022-07-19T12:49:57;31.70;72.00
29341;DHT22;16337;59.536;13.468;2022-07-19T12:52:23;31.20;71.10
29341;DHT22;16337;59.536;13.468;2022-07-19T12:54:48;31.10;74.70
29341;DHT22;16337;59.536;13.468;2022-07-19T12:57:14;31.40;77.20
29341;DHT22;16337;59.536;13.468;2022-07-19T12:59:40;31.70;74.10
29341;DHT22;16337;59.536;13.468;2022-07-19T13:02:16;31.20;73.00
29341;DHT22;16337;59.536;13.468;2022-07-19T13:04:43;31.20;73.80
29341;DHT22;16337;59.536;13.468;2022-07-19T13:07:10;30.90;72.40
29341;DHT22;16337;59.536;13.468;2022-07-19T13:09:37;31.00;72.90
29341;DHT22;16337;59.536;13.468;2022-07-19T13:12:05;31.30;73.70
29341;DHT22;16337;59.536;13.468;2022-07-19T13:14:31;31.70;75.30
29341;DHT22;16337;59.536;13.468;2022-07-19T13:16:57;31.70;75.00
29341;DHT22;16337;59.536;13.468;2022-07-19T13:19:23;31.60;73.20
29341;DHT22;16337;59.536;13.468;2022-07-19T13:21:50;31.60;72.10
29341;DHT22;16337;59.536;13.468;2022-07-19T13:24:16;31.30;67.90
29341;DHT22;16337;59.536;13.468;2022-07-19T13:26:42;31.00;70.00
29341;DHT22;16337;59.536;13.468;2022-07-19T13:29:08;30.90;68.50
29341;DHT22;16337;59.536;13.468;2022-07-19T13:31:33;30.40;70.20
29341;DHT22;16337;59.536;13.468;2022-07-19T13:34:00;30.40;72.10
29341;DHT22;16337;59.536;13.468;2022-07-19T13:36:26;30.40;72.60
29341;DHT22;16337;59.536;13.468;2022-07-19T13:38:51;30.50;72.00
29341;DHT22;16337;59.536;13.468;2022-07-19T13:41:17;30.30;69.60
29341;DHT22;16337;59.536;13.468;2022-07-19T13:43:44;30.00;70.10
29341;DHT22;16337;59.536;13.468;2022-07-19T13:46:10;30.30;73.10
29341;DHT22;16337;59.536;13.468;2022-07-19T13:48:37;30.50;71.00
29341;DHT22;16337;59.536;13.468;2022-07-19T13:51:03;30.40;71.80
29341;DHT22;16337;59.536;13.468;2022-07-19T13:53:28;30.10;69.40
29341;DHT22;16337;59.536;13.468;2022-07-19T13:55:54;30.30;70.90
29341;DHT22;16337;59.536;13.468;2022-07-19T13:58:20;30.70;71.10
29341;DHT22;16337;59.536;13.468;2022-07-19T14:00:45;30.90;71.40
29341;DHT22;16337;59.536;13.468;2022-07-19T14:03:16;31.30;70.60
29341;DHT22;16337;59.536;13.468;2022-07-19T14:05:46;31.60;69.30
29341;DHT22;16337;59.536;13.468;2022-07-19T14:08:13;31.50;68.10
29341;DHT22;16337;59.536;13.468;2022-07-19T14:10:39;31.10;66.80
29341;DHT22;16337;59.536;13.468;2022-07-19T14:13:05;30.60;68.90
29341;DHT22;16337;59.536;13.468;2022-07-19T14:15:31;30.50;70.10
29341;DHT22;16337;59.536;13.468;2022-07-19T14:17:57;30.50;71.60
29341;DHT22;16337;59.536;13.468;2022-07-19T14:20:24;30.60;71.70
29341;DHT22;16337;59.536;13.468;2022-07-19T14:22:50;30.50;69.60
29341;DHT22;16337;59.536;13.468;2022-07-19T14:25:16;30.30;70.90
29341;DHT22;16337;59.536;13.468;2022-07-19T14:27:41;30.30;70.80
29341;DHT22;16337;59.536;13.468;2022-07-19T14:30:08;30.40;74.20
29341;DHT22;16337;59.536;13.468;2022-07-19T14:32:33;30.70;73.90
29341;DHT22;16337;59.536;13.468;2022-07-19T14:34:59;31.20;70.40
29341;DHT22;16337;59.536;13.468;2022-07-19T14:37:25;31.10;69.50
29341;DHT22;16337;59.536;13.468;2022-07-19T14:39:51;30.70;70.60
29341;DHT22;16337;59.536;13.468;2022-07-19T14:42:17;31.00;73.50
29341;DHT22;16337;59.536;13.468;2022-07-19T14:44:43;31.30;70.10
29341;DHT22;16337;59.536;13.468;2022-07-19T14:47:08;31.40;70.80
29341;DHT22;16337;59.536;13.468;2022-07-19T14:49:38;31.30;71.00
29341;DHT22;16337;59.536;13.468;2022-07-19T14:52:04;31.40;72.10
29341;DHT22;16337;59.536;13.468;2022-07-19T14:54:30;31.10;72.00
29341;DHT22;16337;59.536;13.468;2022-07-19T14:56:57;30.80;74.20
29341;DHT22;16337;59.536;13.468;2022-07-19T14:59:24;30.90;74.60
29341;DHT22;16337;59.536;13.468;2022-07-19T15:01:50;31.40;74.80
29341;DHT22;16337;59.536;13.468;2022-07-19T15:04:16;31.50;73.60
29341;DHT22;16337;59.536;13.468;2022-07-19T15:06:42;31.30;73.30
29341;DHT22;16337;59.536;13.468;2022-07-19T15:09:12;31.10;74.80
29341;DHT22;16337;59.536;13.468;2022-07-19T15:11:38;31.00;73.10
29341;DHT22;16337;59.536;13.468;2022-07-19T15:14:04;31.00;75.70
29341;DHT22;16337;59.536;13.468;2022-07-19T15:16:30;31.10;76.50
29341;DHT22;16337;59.536;13.468;2022-07-19T15:18:56;31.10;75.50
29341;DHT22;16337;59.536;13.468;2022-07-19T15:21:22;30.90;75.50
29341;DHT22;16337;59.536;13.468;2022-07-19T15:23:47;30.60;77.50
29341;DHT22;16337;59.536;13.468;2022-07-19T15:26:13;30.50;79.10
29341;DHT22;16337;59.536;13.468;2022-07-19T15:28:39;30.20;78.80
29341;DHT22;16337;59.536;13.468;2022-07-19T15:31:06;29.80;78.40
29341;DHT22;16337;59.536;13.468;2022-07-19T15:33:32;29.60;82.90